sensor_id;sensor_type;location;lat;lon;timestamp;temperature;humidity
20174;DHT22;10246;50.620;7.232;2023-07-13T00:00:08;19.80;1.00
20174;DHT22;10246;50.620;7.232;2023-07-13T00:02:35;19.80;1.00
20174;DHT22;10246;50.620;7.232;2023-07-13T00:05:02;19.70;1.00
20174;DHT22;10246;50.620;7.232;2023-07-13T00:07:29;19.50;1.00
20174;DHT22;10246;50.620;7.232;2023-07-13T00:09:56;19.50;1.00
20174;DHT22;10246;50.620;7.232;2023-07-13T00:12:26;19.40;1.00
20174;DHT22;10246;50.620;7.232;2023-07-13T00:14:55;19.30;1.00
20174;DHT22;10246;50.620;7.232;2023-07-13T00:17:24;19.30;1.00
20174;DHT22;10246;50.620;7.232;2023-07-13T00:19:50;19.30;1.00
20174;DHT22;10246;50.620;7.232;2023-07-13T00:22:17;19.20;1.00
20174;DHT22;10246;50.620;7.232;2023-07-13T00:24:44;19.20;1.00
20174;DHT22;10246;50.620;7.232;2023-07-13T00:27:11;19.20;1.00
20174;DHT22;10246;50.620;7.232;2023-07-13T00:29:38;19.10;1.00
20174;DHT22;10246;50.620;7.232;2023-07-13T00:32:07;19.10;1.00
20174;DHT22;10246;50.620;7.232;2023-07-13T00:34:36;19.00;1.00
20174;DHT22;10246;50.620;7.232;2023-07-13T00:37:03;18.90;1.00
20174;DHT22;10246;50.620;7.232;2023-07-13T00:39:32;18.90;1.00
20174;DHT22;10246;50.620;7.232;2023-07-13T00:41:58;18.90;1.00
20174;DHT22;10246;50.620;7.232;2023-07-13T00:44:26;18.90;1.00
20174;DHT22;10246;50.620;7.232;2023-07-13T00:46:52;18.80;1.00
20174;DHT22;10246;50.620;7.232;2023-07-13T00:49:23;18.80;1.00
20174;DHT22;10246;50.620;7.232;2023-07-13T00:51:53;18.80;1.00
20174;DHT22;10246;50.620;7.232;2023-07-13T00:54:23;18.50;1.00
20174;DHT22;10246;50.620;7.232;2023-07-13T00:56:53;18.60;1.00
20174;DHT22;10246;50.620;7.232;2023-07-13T00:59:21;18.40;1.00
20174;DHT22;10246;50.620;7.232;2023-07-13T01:01:48;18.20;1.00
20174;DHT22;10246;50.620;7.232;2023-07-13T01:04:16;18.10;1.00
20174;DHT22;10246;50.620;7.232;2023-07-13T01:06:43;18.00;1.00
20174;DHT22;10246;50.620;7.232;2023-07-13T01:09:14;18.00;1.00
20174;DHT22;10246;50.620;7.232;2023-07-13T01:11:41;18.00;1.00
20174;DHT22;10246;50.620;7.232;2023-07-13T01:14:10;18.00;1.00
20174;DHT22;10246;50.620;7.232;2023-07-13T01:16:38;18.00;1.00
20174;DHT22;10246;50.620;7.232;2023-07-13T01:19:13;18.10;1.00
20174;DHT22;10246;50.620;7.232;2023-07-13T01:21:43;18.10;1.00
20174;DHT22;10246;50.620;7.232;2023-07-13T01:24:10;17.90;1.00
20174;DHT22;10246;50.620;7.232;2023-07-13T01:26:36;17.90;1.00
20174;DHT22;10246;50.620;7.232;2023-07-13T01:29:03;17.80;1.00
20174;DHT22;10246;50.620;7.232;2023-07-13T01:31:30;17.70;1.00
20174;DHT22;10246;50.620;7.232;2023-07-13T01:33:57;17.50;1.00
20174;DHT22;10246;50.620;7.232;2023-07-13T01:36:24;17.50;1.00
20174;DHT22;10246;50.620;7.232;2023-07-13T01:38:52;17.30;1.00
20174;DHT22;10246;50.620;7.232;2023-07-13T01:41:19;17.20;1.00
20174;DHT22;10246;50.620;7.232;2023-07-13T01:43:46;17.20;1.00
20174;DHT22;10246;50.620;7.232;2023-07-13T01:46:14;17.20;1.00
20174;DHT22;10246;50.620;7.232;2023-07-13T01:48:41;17.10;1.00
20174;DHT22;10246;50.620;7.232;2023-07-13T01:51:08;17.10;1.00
20174;DHT22;10246;50.620;7.232;2023-07-13T01:53:34;17.00;1.00
20174;DHT22;10246;50.620;7.232;2023-07-13T01:56:02;17.00;1.00
20174;DHT22;10246;50.620;7.232;2023-07-13T01:58:29;17.00;1.00
20174;DHT22;10246;50.620;7.232;2023-07-13T02:00:56;16.90;1.00
20174;DHT22;10246;50.620;7.232;2023-07-13T02:03:22;17.00;1.00
20174;DHT22;10246;50.620;7.232;2023-07-13T02:05:49;16.90;1.00
20174;DHT22;10246;50.620;7.232;2023-07-13T02:08:16;16.90;1.00
20174;DHT22;10246;50.620;7.232;2023-07-13T02:10:42;16.80;1.00
20174;DHT22;10246;50.620;7.232;2023-07-13T02:13:11;16.80;1.00
20174;DHT22;10246;50.620;7.232;2023-07-13T02:15:39;16.70;1.00
20174;DHT22;10246;50.620;7.232;2023-07-13T02:18:07;16.50;1.00
20174;DHT22;10246;50.620;7.232;2023-07-13T02:20:34;16.50;1.00
20174;DHT22;10246;50.620;7.232;2023-07-13T02:23:02;16.40;1.00
20174;DHT22;10246;50.620;7.232;2023-07-13T02:25:29;16.30;1.00
20174;DHT22;10246;50.620;7.232;2023-07-13T02:27:56;16.30;1.00
20174;DHT22;10246;50.620;7.232;2023-07-13T02:30:24;16.20;1.00
20174;DHT22;10246;50.620;7.232;2023-07-13T02:32:51;16.20;1.00
20174;DHT22;10246;50.620;7.232;2023-07-13T02:35:18;16.10;1.00
20174;DHT22;10246;50.620;7.232;2023-07-13T02:37:45;16.10;1.00
20174;DHT22;10246;50.620;7.232;2023-07-13T02:40:12;16.00;1.00
20174;DHT22;10246;50.620;7.232;2023-07-13T02:42:39;15.90;1.00
20174;DHT22;10246;50.620;7.232;2023-07-13T02:45:07;15.90;1.00
20174;DHT22;10246;50.620;7.232;2023-07-13T02:47:40;16.00;1.00
20174;DHT22;10246;50.620;7.232;2023-07-13T02:50:07;16.10;1.00
20174;DHT22;10246;50.620;7.232;2023-07-13T02:52:38;16.10;1.00
20174;DHT22;10246;50.620;7.232;2023-07-13T02:55:05;16.20;1.00
20174;DHT22;10246;50.620;7.232;2023-07-13T02:57:33;16.30;1.00
20174;DHT22;10246;50.620;7.232;2023-07-13T03:00:00;16.30;1.00
20174;DHT22;10246;50.620;7.232;2023-07-13T03:06:00;16.30;1.00
20174;DHT22;10246;50.620;7.232;2023-07-13T03:08:29;16.10;1.00
20174;DHT22;10246;50.620;7.232;2023-07-13T03:11:00;16.10;1.00
20174;DHT22;10246;50.620;7.232;2023-07-13T03:13:27;16.10;1.00
20174;DHT22;10246;50.620;7.232;2023-07-13T03:15:54;16.10;1.00
20174;DHT22;10246;50.620;7.232;2023-07-13T03:18:21;16.00;1.00
20174;DHT22;10246;50.620;7.232;2023-07-13T03:20:50;16.10;1.00
20174;DHT22;10246;50.620;7.232;2023-07-13T03:23:19;16.10;1.00
20174;DHT22;10246;50.620;7.232;2023-07-13T03:25:46;16.00;1.00
20174;DHT22;10246;50.620;7.232;2023-07-13T03:28:14;16.00;1.00
20174;DHT22;10246;50.620;7.232;2023-07-13T03:30:41;15.90;1.00
20174;DHT22;10246;50.620;7.232;2023-07-13T03:33:08;16.00;1.00
20174;DHT22;10246;50.620;7.232;2023-07-13T03:35:35;16.00;1.00
20174;DHT22;10246;50.620;7.232;2023-07-13T03:38:06;16.00;1.00
20174;DHT22;10246;50.620;7.232;2023-07-13T03:40:35;16.10;1.00
20174;DHT22;10246;50.620;7.232;2023-07-13T03:43:02;16.20;1.00
20174;DHT22;10246;50.620;7.232;2023-07-13T03:45:29;16.20;1.00
20174;DHT22;10246;50.620;7.232;2023-07-13T03:47:56;16.20;1.00
20174;DHT22;10246;50.620;7.232;2023-07-13T03:50:22;16.30;1.00
20174;DHT22;10246;50.620;7.232;2023-07-13T03:52:49;16.40;1.00
20174;DHT22;10246;50.620;7.232;2023-07-13T03:55:16;16.40;1.00
20174;DHT22;10246;50.620;7.232;2023-07-13T03:57:44;16.40;1.00
20174;DHT22;10246;50.620;7.232;2023-07-13T04:00:12;16.50;1.00
20174;DHT22;10246;50.620;7.232;2023-07-13T04:02:39;16.60;1.00
20174;DHT22;10246;50.620;7.232;2023-07-13T04:05:06;16.70;1.00
20174;DHT22;10246;50.620;7.232;2023-07-13T04:07:33;16.60;1.00
20174;DHT22;10246;50.620;7.232;2023-07-13T04:10:02;16.70;1.00
20174;DHT22;10246;50.620;7.232;2023-07-13T04:12:29;16.70;1.00
20174;DHT22;10246;50.620;7.232;2023-07-13T04:14:57;16.70;1.00
20174;DHT22;10246;50.620;7.232;2023-07-13T04:17:24;16.80;1.00
20174;DHT22;10246;50.620;7.232;2023-07-13T04:19:51;16.90;1.00
20174;DHT22;10246;50.620;7.232;2023-07-13T04:22:18;16.90;1.00
20174;DHT22;10246;50.620;7.232;2023-07-13T04:24:45;16.90;1.00
20174;DHT22;10246;50.620;7.232;2023-07-13T04:27:12;16.90;1.00
20174;DHT22;10246;50.620;7.232;2023-07-13T04:29:39;17.00;1.00
20174;DHT22;10246;50.620;7.232;2023-07-13T04:32:11;16.90;1.00
20174;DHT22;10246;50.620;7.232;2023-07-13T04:34:38;16.90;1.00
20174;DHT22;10246;50.620;7.232;2023-07-13T04:37:05;16.90;1.00
20174;DHT22;10246;50.620;7.232;2023-07-13T04:39:32;16.90;1.00
20174;DHT22;10246;50.620;7.232;2023-07-13T04:41:59;16.90;1.00
20174;DHT22;10246;50.620;7.232;2023-07-13T04:44:26;17.00;1.00
20174;DHT22;10246;50.620;7.232;2023-07-13T04:46:52;17.00;1.00
20174;DHT22;10246;50.620;7.232;2023-07-13T04:49:20;17.10;1.00
20174;DHT22;10246;50.620;7.232;2023-07-13T04:51:47;17.20;1.00
20174;DHT22;10246;50.620;7.232;2023-07-13T04:54:14;17.20;1.00
20174;DHT22;10246;50.620;7.232;2023-07-13T04:56:41;17.10;1.00
20174;DHT22;10246;50.620;7.232;2023-07-13T04:59:08;17.10;1.00
20174;DHT22;10246;50.620;7.232;2023-07-13T05:01:35;17.00;1.00
20174;DHT22;10246;50.620;7.232;2023-07-13T05:04:01;17.00;1.00
20174;DHT22;10246;50.620;7.232;2023-07-13T05:06:29;16.90;1.00
20174;DHT22;10246;50.620;7.232;2023-07-13T05:08:57;16.90;1.00
20174;DHT22;10246;50.620;7.232;2023-07-13T05:11:24;16.90;1.00
20174;DHT22;10246;50.620;7.232;2023-07-13T05:13:50;17.00;1.00
20174;DHT22;10246;50.620;7.232;2023-07-13T05:16:17;17.10;1.00
20174;DHT22;10246;50.620;7.232;2023-07-13T05:18:44;17.20;1.00
20174;DHT22;10246;50.620;7.232;2023-07-13T05:21:11;17.30;1.00
20174;DHT22;10246;50.620;7.232;2023-07-13T05:23:39;17.40;1.00
20174;DHT22;10246;50.620;7.232;2023-07-13T05:26:07;17.40;1.00
20174;DHT22;10246;50.620;7.232;2023-07-13T05:28:33;17.50;1.00
20174;DHT22;10246;50.620;7.232;2023-07-13T05:31:00;17.60;1.00
20174;DHT22;10246;50.620;7.232;2023-07-13T05:33:27;17.60;1.00
20174;DHT22;10246;50.620;7.232;2023-07-13T05:35:54;17.70;1.00
20174;DHT22;10246;50.620;7.232;2023-07-13T05:38:23;17.70;1.00
20174;DHT22;10246;50.620;7.232;2023-07-13T05:40:53;17.80;1.00
20174;DHT22;10246;50.620;7.232;2023-07-13T05:43:20;17.80;1.00
20174;DHT22;10246;50.620;7.232;2023-07-13T05:45:47;17.80;1.00
20174;DHT22;10246;50.620;7.232;2023-07-13T05:48:15;17.90;1.00
20174;DHT22;10246;50.620;7.232;2023-07-13T05:50:42;18.00;1.00
20174;DHT22;10246;50.620;7.232;2023-07-13T05:53:08;18.10;1.00
20174;DHT22;10246;50.620;7.232;2023-07-13T05:55:35;18.20;1.00
20174;DHT22;10246;50.620;7.232;2023-07-13T05:58:03;18.20;1.00
20174;DHT22;10246;50.620;7.232;2023-07-13T06:00:30;18.30;1.00
20174;DHT22;10246;50.620;7.232;2023-07-13T06:02:57;18.40;1.00
20174;DHT22;10246;50.620;7.232;2023-07-13T06:05:24;18.50;1.00
20174;DHT22;10246;50.620;7.232;2023-07-13T06:07:51;18.70;1.00
20174;DHT22;10246;50.620;7.232;2023-07-13T06:10:18;18.80;1.00
20174;DHT22;10246;50.620;7.232;2023-07-13T06:12:44;18.80;1.00
20174;DHT22;10246;50.620;7.232;2023-07-13T06:15:13;18.90;1.00
20174;DHT22;10246;50.620;7.232;2023-07-13T06:17:43;19.10;1.00
20174;DHT22;10246;50.620;7.232;2023-07-13T06:20:10;19.20;1.00
20174;DHT22;10246;50.620;7.232;2023-07-13T06:22:37;19.20;1.00
20174;DHT22;10246;50.620;7.232;2023-07-13T06:25:05;19.40;1.00
20174;DHT22;10246;50.620;7.232;2023-07-13T06:27:31;19.50;1.00
20174;DHT22;10246;50.620;7.232;2023-07-13T06:29:58;19.50;1.00
20174;DHT22;10246;50.620;7.232;2023-07-13T06:32:26;19.70;1.00
20174;DHT22;10246;50.620;7.232;2023-07-13T06:34:53;19.80;1.00
20174;DHT22;10246;50.620;7.232;2023-07-13T06:37:20;19.80;1.00
20174;DHT22;10246;50.620;7.232;2023-07-13T06:39:46;19.80;1.00
20174;DHT22;10246;50.620;7.232;2023-07-13T06:42:16;19.90;1.00
20174;DHT22;10246;50.620;7.232;2023-07-13T06:44:43;20.00;1.00
20174;DHT22;10246;50.620;7.232;2023-07-13T06:47:10;20.10;1.00
20174;DHT22;10246;50.620;7.232;2023-07-13T06:49:38;20.20;1.00
20174;DHT22;10246;50.620;7.232;2023-07-13T06:52:05;20.30;1.00
20174;DHT22;10246;50.620;7.232;2023-07-13T06:54:32;20.50;1.00
20174;DHT22;10246;50.620;7.232;2023-07-13T06:57:00;20.70;1.00
20174;DHT22;10246;50.620;7.232;2023-07-13T06:59:27;20.80;1.00
20174;DHT22;10246;50.620;7.232;2023-07-13T07:01:54;20.80;1.00
20174;DHT22;10246;50.620;7.232;2023-07-13T07:04:20;20.80;1.00
20174;DHT22;10246;50.620;7.232;2023-07-13T07:06:48;20.70;1.00
20174;DHT22;10246;50.620;7.232;2023-07-13T07:09:15;20.70;1.00
20174;DHT22;10246;50.620;7.232;2023-07-13T07:11:42;20.80;1.00
20174;DHT22;10246;50.620;7.232;2023-07-13T07:14:09;20.90;1.00
20174;DHT22;10246;50.620;7.232;2023-07-13T07:16:36;21.00;1.00
20174;DHT22;10246;50.620;7.232;2023-07-13T07:19:03;21.10;1.00
20174;DHT22;10246;50.620;7.232;2023-07-13T07:21:29;21.20;1.00
20174;DHT22;10246;50.620;7.232;2023-07-13T07:23:58;21.30;1.00
20174;DHT22;10246;50.620;7.232;2023-07-13T07:26:25;21.40;1.00
20174;DHT22;10246;50.620;7.232;2023-07-13T07:28:52;21.40;1.00
20174;DHT22;10246;50.620;7.232;2023-07-13T07:31:19;21.60;1.00
20174;DHT22;10246;50.620;7.232;2023-07-13T07:33:45;21.70;1.00
20174;DHT22;10246;50.620;7.232;2023-07-13T07:36:12;21.90;1.00
20174;DHT22;10246;50.620;7.232;2023-07-13T07:38:39;22.00;1.00
20174;DHT22;10246;50.620;7.232;2023-07-13T07:41:07;22.10;1.00
20174;DHT22;10246;50.620;7.232;2023-07-13T07:43:34;22.20;1.00
20174;DHT22;10246;50.620;7.232;2023-07-13T07:46:02;22.30;1.00
20174;DHT22;10246;50.620;7.232;2023-07-13T07:48:28;22.30;1.00
20174;DHT22;10246;50.620;7.232;2023-07-13T07:50:58;22.30;1.00
20174;DHT22;10246;50.620;7.232;2023-07-13T07:53:25;22.30;1.00
20174;DHT22;10246;50.620;7.232;2023-07-13T07:55:52;22.40;1.00
20174;DHT22;10246;50.620;7.232;2023-07-13T07:58:20;22.50;1.00
20174;DHT22;10246;50.620;7.232;2023-07-13T08:00:46;22.40;1.00
20174;DHT22;10246;50.620;7.232;2023-07-13T08:03:13;22.50;1.00
20174;DHT22;10246;50.620;7.232;2023-07-13T08:05:40;22.50;1.00
20174;DHT22;10246;50.620;7.232;2023-07-13T08:08:06;22.50;1.00
20174;DHT22;10246;50.620;7.232;2023-07-13T08:10:35;22.60;1.00
20174;DHT22;10246;50.620;7.232;2023-07-13T08:13:03;22.80;1.00
20174;DHT22;10246;50.620;7.232;2023-07-13T08:15:31;23.00;1.00
20174;DHT22;10246;50.620;7.232;2023-07-13T08:17:57;23.10;1.00
20174;DHT22;10246;50.620;7.232;2023-07-13T08:20:24;23.10;1.00
20174;DHT22;10246;50.620;7.232;2023-07-13T08:22:51;23.20;1.00
20174;DHT22;10246;50.620;7.232;2023-07-13T08:25:18;23.20;1.00
20174;DHT22;10246;50.620;7.232;2023-07-13T08:27:46;23.50;1.00
20174;DHT22;10246;50.620;7.232;2023-07-13T08:30:13;23.50;1.00
20174;DHT22;10246;50.620;7.232;2023-07-13T08:32:41;23.60;1.00
20174;DHT22;10246;50.620;7.232;2023-07-13T08:35:08;23.50;1.00
20174;DHT22;10246;50.620;7.232;2023-07-13T08:37:34;23.50;1.00
20174;DHT22;10246;50.620;7.232;2023-07-13T08:40:01;23.60;1.00
20174;DHT22;10246;50.620;7.232;2023-07-13T08:42:37;23.60;1.00
20174;DHT22;10246;50.620;7.232;2023-07-13T08:45:20;23.70;1.00
20174;DHT22;10246;50.620;7.232;2023-07-13T08:47:54;23.80;1.00
20174;DHT22;10246;50.620;7.232;2023-07-13T08:50:25;23.90;1.00
20174;DHT22;10246;50.620;7.232;2023-07-13T08:52:55;23.90;1.00
20174;DHT22;10246;50.620;7.232;2023-07-13T11:34:19;25.20;1.00
20174;DHT22;10246;50.620;7.232;2023-07-13T11:36:48;25.10;1.00
20174;DHT22;10246;50.620;7.232;2023-07-13T11:39:18;25.10;1.00
20174;DHT22;10246;50.620;7.232;2023-07-13T11:41:50;25.10;1.00
20174;DHT22;10246;50.620;7.232;2023-07-13T11:44:20;25.10;1.00
20174;DHT22;10246;50.620;7.232;2023-07-13T11:46:48;25.20;1.00
20174;DHT22;10246;50.620;7.232;2023-07-13T11:49:19;25.10;1.00
20174;DHT22;10246;50.620;7.232;2023-07-13T11:51:46;25.00;1.00
20174;DHT22;10246;50.620;7.232;2023-07-13T11:54:23;25.10;1.00
20174;DHT22;10246;50.620;7.232;2023-07-13T11:56:52;25.10;1.00
20174;DHT22;10246;50.620;7.232;2023-07-13T11:59:19;24.90;1.00
20174;DHT22;10246;50.620;7.232;2023-07-13T12:01:52;25.10;1.00
20174;DHT22;10246;50.620;7.232;2023-07-13T12:04:24;25.20;1.00
20174;DHT22;10246;50.620;7.232;2023-07-13T12:06:56;25.40;1.00
20174;DHT22;10246;50.620;7.232;2023-07-13T12:09:27;25.70;1.00
20174;DHT22;10246;50.620;7.232;2023-07-13T12:11:56;25.70;1.00
20174;DHT22;10246;50.620;7.232;2023-07-13T12:14:24;25.50;1.00
20174;DHT22;10246;50.620;7.232;2023-07-13T12:16:52;25.20;1.00
20174;DHT22;10246;50.620;7.232;2023-07-13T12:19:23;24.90;1.00
20174;DHT22;10246;50.620;7.232;2023-07-13T12:21:52;24.90;1.00
20174;DHT22;10246;50.620;7.232;2023-07-13T12:24:21;25.00;1.00
20174;DHT22;10246;50.620;7.232;2023-07-13T12:26:53;25.00;1.00
20174;DHT22;10246;50.620;7.232;2023-07-13T12:29:20;25.10;1.00
20174;DHT22;10246;50.620;7.232;2023-07-13T12:31:49;25.10;1.00
20174;DHT22;10246;50.620;7.232;2023-07-13T12:34:19;25.20;1.00
20174;DHT22;10246;50.620;7.232;2023-07-13T12:36:49;25.30;1.00
20174;DHT22;10246;50.620;7.232;2023-07-13T12:39:20;25.40;1.00
20174;DHT22;10246;50.620;7.232;2023-07-13T12:41:48;25.20;1.00
20174;DHT22;10246;50.620;7.232;2023-07-13T12:44:17;25.00;1.00
20174;DHT22;10246;50.620;7.232;2023-07-13T12:46:53;25.20;1.00
20174;DHT22;10246;50.620;7.232;2023-07-13T12:49:24;25.10;1.00
20174;DHT22;10246;50.620;7.232;2023-07-13T12:51:56;25.00;1.00
20174;DHT22;10246;50.620;7.232;2023-07-13T12:54:23;25.00;1.00
20174;DHT22;10246;50.620;7.232;2023-07-13T12:56:51;25.10;1.00
20174;DHT22;10246;50.620;7.232;2023-07-13T12:59:21;25.00;1.00
20174;DHT22;10246;50.620;7.232;2023-07-13T13:01:49;25.20;1.00
20174;DHT22;10246;50.620;7.232;2023-07-13T13:04:17;25.50;1.00
20174;DHT22;10246;50.620;7.232;2023-07-13T13:06:47;25.60;1.00
20174;DHT22;10246;50.620;7.232;2023-07-13T13:09:16;25.60;1.00
20174;DHT22;10246;50.620;7.232;2023-07-13T13:11:44;25.70;1.00
20174;DHT22;10246;50.620;7.232;2023-07-13T13:14:10;25.70;1.00
20174;DHT22;10246;50.620;7.232;2023-07-13T13:16:45;25.80;1.00
20174;DHT22;10246;50.620;7.232;2023-07-13T13:19:14;25.90;1.00
20174;DHT22;10246;50.620;7.232;2023-07-13T13:21:43;25.90;1.00
20174;DHT22;10246;50.620;7.232;2023-07-13T13:24:16;26.00;1.00
20174;DHT22;10246;50.620;7.232;2023-07-13T13:26:43;26.10;1.00
20174;DHT22;10246;50.620;7.232;2023-07-13T13:29:13;26.10;1.00
20174;DHT22;10246;50.620;7.232;2023-07-13T13:31:41;26.00;1.00
20174;DHT22;10246;50.620;7.232;2023-07-13T13:34:09;25.90;1.00
20174;DHT22;10246;50.620;7.232;2023-07-13T13:36:39;25.70;1.00
20174;DHT22;10246;50.620;7.232;2023-07-13T13:39:20;25.70;1.00
20174;DHT22;10246;50.620;7.232;2023-07-13T13:41:48;25.60;1.00
20174;DHT22;10246;50.620;7.232;2023-07-13T13:44:16;25.50;1.00
20174;DHT22;10246;50.620;7.232;2023-07-13T13:46:44;25.40;1.00
20174;DHT22;10246;50.620;7.232;2023-07-13T13:49:14;25.40;1.00
20174;DHT22;10246;50.620;7.232;2023-07-13T13:51:42;25.30;1.00
20174;DHT22;10246;50.620;7.232;2023-07-13T13:54:11;25.20;1.00
20174;DHT22;10246;50.620;7.232;2023-07-13T13:56:41;25.20;1.00
20174;DHT22;10246;50.620;7.232;2023-07-13T13:59:08;25.30;1.00
20174;DHT22;10246;50.620;7.232;2023-07-13T14:01:36;25.20;1.00
20174;DHT22;10246;50.620;7.232;2023-07-13T14:04:04;25.40;1.00
20174;DHT22;10246;50.620;7.232;2023-07-13T14:06:32;25.50;1.00
20174;DHT22;10246;50.620;7.232;2023-07-13T14:08:59;25.50;1.00
20174;DHT22;10246;50.620;7.232;2023-07-13T14:11:28;25.30;1.00
20174;DHT22;10246;50.620;7.232;2023-07-13T14:13:59;25.30;1.00
20174;DHT22;10246;50.620;7.232;2023-07-13T14:16:30;25.40;1.00
20174;DHT22;10246;50.620;7.232;2023-07-13T14:18:58;25.50;1.00
20174;DHT22;10246;50.620;7.232;2023-07-13T14:21:27;25.50;1.00
20174;DHT22;10246;50.620;7.232;2023-07-13T14:23:54;25.60;1.00
20174;DHT22;10246;50.620;7.232;2023-07-13T14:26:23;25.80;1.00
20174;DHT22;10246;50.620;7.232;2023-07-13T14:28:52;25.70;1.00
20174;DHT22;10246;50.620;7.232;2023-07-13T14:31:22;25.70;1.00
20174;DHT22;10246;50.620;7.232;2023-07-13T14:33:49;26.00;1.00
20174;DHT22;10246;50.620;7.232;2023-07-13T14:36:26;26.30;1.00
20174;DHT22;10246;50.620;7.232;2023-07-13T14:38:54;26.40;1.00
20174;DHT22;10246;50.620;7.232;2023-07-13T14:41:22;26.30;1.00
20174;DHT22;10246;50.620;7.232;2023-07-13T14:43:49;26.20;1.00
20174;DHT22;10246;50.620;7.232;2023-07-13T14:46:30;26.30;1.00
20174;DHT22;10246;50.620;7.232;2023-07-13T14:49:02;26.40;1.00
20174;DHT22;10246;50.620;7.232;2023-07-13T14:51:29;26.80;1.00
20174;DHT22;10246;50.620;7.232;2023-07-13T14:53:57;26.70;1.00
20174;DHT22;10246;50.620;7.232;2023-07-13T14:56:25;26.50;1.00
20174;DHT22;10246;50.620;7.232;2023-07-13T14:58:51;26.40;1.00
20174;DHT22;10246;50.620;7.232;2023-07-13T15:01:21;26.50;1.00
20174;DHT22;10246;50.620;7.232;2023-07-13T15:03:51;26.30;1.00
20174;DHT22;10246;50.620;7.232;2023-07-13T15:06:19;26.30;1.00
20174;DHT22;10246;50.620;7.232;2023-07-13T15:08:46;26.10;1.00
20174;DHT22;10246;50.620;7.232;2023-07-13T15:11:14;26.10;1.00
20174;DHT22;10246;50.620;7.232;2023-07-13T15:13:41;26.10;1.00
20174;DHT22;10246;50.620;7.232;2023-07-13T15:16:15;26.00;1.00
20174;DHT22;10246;50.620;7.232;2023-07-13T15:18:45;25.90;1.00
20174;DHT22;10246;50.620;7.232;2023-07-13T15:21:16;25.90;1.00
20174;DHT22;10246;50.620;7.232;2023-07-13T15:23:45;25.80;1.00
20174;DHT22;10246;50.620;7.232;2023-07-13T15:26:13;25.90;1.00
20174;DHT22;10246;50.620;7.232;2023-07-13T15:28:41;26.10;1.00
20174;DHT22;10246;50.620;7.232;2023-07-13T15:31:20;26.20;1.00
20174;DHT22;10246;50.620;7.232;2023-07-13T15:33:49;26.30;1.00
20174;DHT22;10246;50.620;7.232;2023-07-13T15:36:17;26.30;1.00
20174;DHT22;10246;50.620;7.232;2023-07-13T15:38:45;26.40;1.00
20174;DHT22;10246;50.620;7.232;2023-07-13T15:41:19;26.40;1.00
20174;DHT22;10246;50.620;7.232;2023-07-13T15:43:49;26.30;1.00
20174;DHT22;10246;50.620;7.232;2023-07-13T15:46:16;26.30;1.00
20174;DHT22;10246;50.620;7.232;2023-07-13T15:48:52;26.30;1.00
20174;DHT22;10246;50.620;7.232;2023-07-13T15:51:31;26.30;1.00
20174;DHT22;10246;50.620;7.232;2023-07-13T15:54:05;26.30;1.00
20174;DHT22;10246;50.620;7.232;2023-07-13T15:56:35;26.20;1.00
20174;DHT22;10246;50.620;7.232;2023-07-13T15:59:03;26.20;1.00
20174;DHT22;10246;50.620;7.232;2023-07-13T16:01:31;26.20;1.00
20174;DHT22;10246;50.620;7.232;2023-07-13T16:04:00;26.00;1.00
20174;DHT22;10246;50.620;7.232;2023-07-13T16:06:29;26.00;1.00
20174;DHT22;10246;50.620;7.232;2023-07-13T16:08:57;26.00;1.00
20174;DHT22;10246;50.620;7.232;2023-07-13T16:11:28;26.00;1.00
20174;DHT22;10246;50.620;7.232;2023-07-13T16:13:58;26.00;1.00
20174;DHT22;10246;50.620;7.232;2023-07-13T16:16:27;26.00;1.00
20174;DHT22;10246;50.620;7.232;2023-07-13T16:18:55;25.90;1.00
20174;DHT22;10246;50.620;7.232;2023-07-13T16:21:25;25.70;1.00
20174;DHT22;10246;50.620;7.232;2023-07-13T16:23:54;25.70;1.00
20174;DHT22;10246;50.620;7.232;2023-07-13T16:26:31;25.80;1.00
20174;DHT22;10246;50.620;7.232;2023-07-13T16:29:08;25.80;1.00
20174;DHT22;10246;50.620;7.232;2023-07-13T16:31:35;25.70;1.00
20174;DHT22;10246;50.620;7.232;2023-07-13T16:34:02;25.60;1.00
20174;DHT22;10246;50.620;7.232;2023-07-13T16:36:30;25.50;1.00
20174;DHT22;10246;50.620;7.232;2023-07-13T16:38:58;25.50;1.00
20174;DHT22;10246;50.620;7.232;2023-07-13T16:41:25;25.70;1.00
20174;DHT22;10246;50.620;7.232;2023-07-13T16:43:52;25.80;1.00
20174;DHT22;10246;50.620;7.232;2023-07-13T16:46:22;25.70;1.00
20174;DHT22;10246;50.620;7.232;2023-07-13T16:48:49;25.70;1.00
20174;DHT22;10246;50.620;7.232;2023-07-13T16:51:19;25.70;1.00
20174;DHT22;10246;50.620;7.232;2023-07-13T16:53:47;25.60;1.00
20174;DHT22;10246;50.620;7.232;2023-07-13T16:56:16;25.60;1.00
20174;DHT22;10246;50.620;7.232;2023-07-13T16:58:44;25.50;1.00
20174;DHT22;10246;50.620;7.232;2023-07-13T17:01:12;25.40;1.00
20174;DHT22;10246;50.620;7.232;2023-07-13T17:03:39;25.30;1.00
20174;DHT22;10246;50.620;7.232;2023-07-13T17:06:20;25.30;1.00
20174;DHT22;10246;50.620;7.232;2023-07-13T17:08:52;25.20;1.00
20174;DHT22;10246;50.620;7.232;2023-07-13T17:11:21;25.30;1.00
20174;DHT22;10246;50.620;7.232;2023-07-13T17:13:48;25.40;1.00
20174;DHT22;10246;50.620;7.232;2023-07-13T17:16:15;25.30;1.00
20174;DHT22;10246;50.620;7.232;2023-07-13T17:18:42;25.10;1.00
20174;DHT22;10246;50.620;7.232;2023-07-13T17:21:14;24.70;1.00
20174;DHT22;10246;50.620;7.232;2023-07-13T17:23:42;24.50;1.00
20174;DHT22;10246;50.620;7.232;2023-07-13T17:26:10;24.40;1.00
20174;DHT22;10246;50.620;7.232;2023-07-13T17:28:43;24.40;1.00
20174;DHT22;10246;50.620;7.232;2023-07-13T17:31:20;24.20;1.00
20174;DHT22;10246;50.620;7.232;2023-07-13T17:33:50;24.10;1.00
20174;DHT22;10246;50.620;7.232;2023-07-13T17:36:23;24.10;1.00
20174;DHT22;10246;50.620;7.232;2023-07-13T17:38:50;24.10;1.00
20174;DHT22;10246;50.620;7.232;2023-07-13T17:41:25;23.90;1.00
20174;DHT22;10246;50.620;7.232;2023-07-13T17:43:55;23.80;1.00
20174;DHT22;10246;50.620;7.232;2023-07-13T17:46:34;23.90;1.00
20174;DHT22;10246;50.620;7.232;2023-07-13T17:49:10;23.90;1.00
20174;DHT22;10246;50.620;7.232;2023-07-13T17:51:45;24.00;1.00
20174;DHT22;10246;50.620;7.232;2023-07-13T17:54:14;23.90;1.00
20174;DHT22;10246;50.620;7.232;2023-07-13T17:56:45;23.90;1.00
20174;DHT22;10246;50.620;7.232;2023-07-13T17:59:19;24.00;1.00
20174;DHT22;10246;50.620;7.232;2023-07-13T18:01:48;24.00;1.00
20174;DHT22;10246;50.620;7.232;2023-07-13T18:04:30;24.00;1.00
20174;DHT22;10246;50.620;7.232;2023-07-13T18:06:58;24.00;1.00
20174;DHT22;10246;50.620;7.232;2023-07-13T18:09:34;23.90;1.00
20174;DHT22;10246;50.620;7.232;2023-07-13T18:12:03;23.90;1.00
20174;DHT22;10246;50.620;7.232;2023-07-13T18:14:30;23.80;1.00
20174;DHT22;10246;50.620;7.232;2023-07-13T18:17:01;23.70;1.00
20174;DHT22;10246;50.620;7.232;2023-07-13T18:19:33;23.60;1.00
20174;DHT22;10246;50.620;7.232;2023-07-13T18:22:13;23.60;1.00
20174;DHT22;10246;50.620;7.232;2023-07-13T18:24:44;23.60;1.00
20174;DHT22;10246;50.620;7.232;2023-07-13T18:27:13;23.60;1.00
20174;DHT22;10246;50.620;7.232;2023-07-13T18:29:42;23.60;1.00
20174;DHT22;10246;50.620;7.232;2023-07-13T18:32:15;23.60;1.00
20174;DHT22;10246;50.620;7.232;2023-07-13T18:34:44;23.60;1.00